sensor_id;sensor_type;location;lat;lon;timestamp;pressure;altitude;pressure_sealevel;temperature;humidity
65659;BME280;60181;53.258;6.932;2022-11-03T00:04:17;101519.41;;;16.22;63.21
65659;BME280;60181;53.258;6.932;2022-11-03T00:08:44;101515.69;;;16.22;63.06
65659;BME280;60181;53.258;6.932;2022-11-03T00:13:12;101510.80;;;16.21;63.21
65659;BME280;60181;53.258;6.932;2022-11-03T00:17:40;101506.56;;;16.20;62.80
65659;BME280;60181;53.258;6.932;2022-11-03T00:22:08;101500.45;;;16.19;62.76
65659;BME280;60181;53.258;6.932;2022-11-03T00:26:36;101493.98;;;16.19;62.83
65659;BME280;60181;53.258;6.932;2022-11-03T00:31:05;101487.45;;;16.18;62.41
65659;BME280;60181;53.258;6.932;2022-11-03T00:35:32;101482.06;;;16.17;62.51
65659;BME280;60181;53.258;6.932;2022-11-03T00:40:00;101477.33;;;16.17;62.55
65659;BME280;60181;53.258;6.932;2022-11-03T00:44:28;101475.51;;;16.16;62.70
65659;BME280;60181;53.258;6.932;2022-11-03T00:48:56;101474.44;;;16.16;62.61
65659;BME280;60181;53.258;6.932;2022-11-03T00:53:24;101471.45;;;16.15;62.39
65659;BME280;60181;53.258;6.932;2022-11-03T00:57:52;101469.13;;;16.15;62.33
65659;BME280;60181;53.258;6.932;2022-11-03T01:02:20;101465.09;;;16.15;62.37
65659;BME280;60181;53.258;6.932;2022-11-03T01:06:49;101459.11;;;16.15;62.22
65659;BME280;60181;53.258;6.932;2022-11-03T01:11:17;101452.17;;;16.14;62.12
65659;BME280;60181;53.258;6.932;2022-11-03T01:15:44;101443.97;;;16.13;62.11
65659;BME280;60181;53.258;6.932;2022-11-03T01:20:12;101436.21;;;16.13;62.09
65659;BME280;60181;53.258;6.932;2022-11-03T01:24:40;101428.91;;;16.12;62.06
65659;BME280;60181;53.258;6.932;2022-11-03T01:29:08;101420.39;;;16.11;62.39
65659;BME280;60181;53.258;6.932;2022-11-03T01:33:36;101410.53;;;16.10;62.59
65659;BME280;60181;53.258;6.932;2022-11-03T01:38:04;101403.59;;;16.10;62.34
65659;BME280;60181;53.258;6.932;2022-11-03T01:42:32;101396.41;;;16.09;62.24
65659;BME280;60181;53.258;6.932;2022-11-03T01:47:05;101389.45;;;16.09;62.49
65659;BME280;60181;53.258;6.932;2022-11-03T01:51:28;101383.17;;;16.08;62.10
65659;BME280;60181;53.258;6.932;2022-11-03T01:55:56;101378.44;;;16.08;62.33
65659;BME280;60181;53.258;6.932;2022-11-03T02:00:24;101374.64;;;16.08;62.48
65659;BME280;60181;53.258;6.932;2022-11-03T02:04:52;101368.78;;;16.07;62.16
65659;BME280;60181;53.258;6.932;2022-11-03T02:09:20;101361.49;;;16.07;62.26
65659;BME280;60181;53.258;6.932;2022-11-03T02:13:48;101355.05;;;16.06;62.28
65659;BME280;60181;53.258;6.932;2022-11-03T02:18:16;101349.34;;;16.06;62.29
65659;BME280;60181;53.258;6.932;2022-11-03T02:23:03;101345.94;;;16.05;62.13
65659;BME280;60181;53.258;6.932;2022-11-03T02:27:12;101342.95;;;16.05;61.97
65659;BME280;60181;53.258;6.932;2022-11-03T02:31:40;101337.67;;;16.05;61.96
65659;BME280;60181;53.258;6.932;2022-11-03T02:36:21;101332.37;;;16.04;62.31
65659;BME280;60181;53.258;6.932;2022-11-03T02:40:37;101329.97;;;16.04;62.35
65659;BME280;60181;53.258;6.932;2022-11-03T02:45:04;101327.81;;;16.03;62.16
65659;BME280;60181;53.258;6.932;2022-11-03T02:49:36;101324.98;;;16.02;62.25
65659;BME280;60181;53.258;6.932;2022-11-03T03:03:00;101320.36;;;16.01;62.35
65659;BME280;60181;53.258;6.932;2022-11-03T03:07:25;101315.63;;;16.01;62.64
65659;BME280;60181;53.258;6.932;2022-11-03T03:11:52;101310.44;;;16.00;62.56
65659;BME280;60181;53.258;6.932;2022-11-03T03:16:22;101307.30;;;16.00;62.80
65659;BME280;60181;53.258;6.932;2022-11-03T03:20:54;101303.00;;;16.00;63.10
65659;BME280;60181;53.258;6.932;2022-11-03T03:25:28;101297.69;;;16.00;63.00
65659;BME280;60181;53.258;6.932;2022-11-03T03:29:45;101293.14;;;16.00;63.24
65659;BME280;60181;53.258;6.932;2022-11-03T03:34:11;101289.59;;;15.99;63.20
65659;BME280;60181;53.258;6.932;2022-11-03T03:38:41;101285.38;;;16.00;63.33
65659;BME280;60181;53.258;6.932;2022-11-03T03:43:08;101281.25;;;16.00;63.42
65659;BME280;60181;53.258;6.932;2022-11-03T03:47:36;101278.03;;;15.99;63.46
65659;BME280;60181;53.258;6.932;2022-11-03T03:52:03;101274.55;;;15.99;64.06
65659;BME280;60181;53.258;6.932;2022-11-03T03:56:35;101270.01;;;16.00;63.58
65659;BME280;60181;53.258;6.932;2022-11-03T04:00:59;101266.29;;;16.00;63.97
65659;BME280;60181;53.258;6.932;2022-11-03T04:05:27;101262.09;;;16.01;64.19
65659;BME280;60181;53.258;6.932;2022-11-03T04:09:55;101258.45;;;16.01;64.51
65659;BME280;60181;53.258;6.932;2022-11-03T04:14:23;101255.98;;;16.01;64.08
65659;BME280;60181;53.258;6.932;2022-11-03T04:18:51;101250.45;;;16.00;63.83
65659;BME280;60181;53.258;6.932;2022-11-03T04:23:19;101243.66;;;16.00;64.28
65659;BME280;60181;53.258;6.932;2022-11-03T04:27:47;101237.70;;;15.99;64.31
65659;BME280;60181;53.258;6.932;2022-11-03T04:32:16;101231.84;;;16.01;65.39
65659;BME280;60181;53.258;6.932;2022-11-03T04:36:43;101224.86;;;16.03;65.19
65659;BME280;60181;53.258;6.932;2022-11-03T04:41:13;101218.27;;;16.04;65.59
65659;BME280;60181;53.258;6.932;2022-11-03T04:45:39;101212.91;;;16.05;65.87
65659;BME280;60181;53.258;6.932;2022-11-03T04:50:12;101208.51;;;16.06;66.11
65659;BME280;60181;53.258;6.932;2022-11-03T04:54:35;101204.00;;;16.06;66.28
65659;BME280;60181;53.258;6.932;2022-11-03T04:59:04;101200.27;;;16.07;66.50
65659;BME280;60181;53.258;6.932;2022-11-03T05:03:33;101195.22;;;16.07;66.56
65659;BME280;60181;53.258;6.932;2022-11-03T05:07:59;101190.05;;;16.07;67.08
65659;BME280;60181;53.258;6.932;2022-11-03T05:12:28;101185.00;;;16.07;67.15
65659;BME280;60181;53.258;6.932;2022-11-03T05:16:55;101180.62;;;16.08;67.25
65659;BME280;60181;53.258;6.932;2022-11-03T05:21:24;101176.15;;;16.08;67.24
65659;BME280;60181;53.258;6.932;2022-11-03T05:25:52;101170.62;;;16.07;67.20
65659;BME280;60181;53.258;6.932;2022-11-03T05:30:19;101164.59;;;16.08;67.45
65659;BME280;60181;53.258;6.932;2022-11-03T05:34:48;101160.13;;;16.08;67.40
65659;BME280;60181;53.258;6.932;2022-11-03T05:39:26;101156.41;;;16.08;67.59
65659;BME280;60181;53.258;6.932;2022-11-03T05:43:43;101152.71;;;16.08;67.45
65659;BME280;60181;53.258;6.932;2022-11-03T05:48:30;101150.23;;;16.08;67.67
65659;BME280;60181;53.258;6.932;2022-11-03T05:52:39;101147.64;;;16.08;67.72
65659;BME280;60181;53.258;6.932;2022-11-03T05:57:10;101145.09;;;16.08;67.71
65659;BME280;60181;53.258;6.932;2022-11-03T06:01:36;101142.94;;;16.08;67.76
65659;BME280;60181;53.258;6.932;2022-11-03T06:06:10;101139.72;;;16.07;67.89
65659;BME280;60181;53.258;6.932;2022-11-03T06:10:33;101136.42;;;16.07;67.87
65659;BME280;60181;53.258;6.932;2022-11-03T06:14:59;101132.37;;;16.07;68.06
65659;BME280;60181;53.258;6.932;2022-11-03T06:19:28;101127.75;;;16.07;67.96
65659;BME280;60181;53.258;6.932;2022-11-03T06:23:55;101125.16;;;16.07;67.99
65659;BME280;60181;53.258;6.932;2022-11-03T06:28:24;101122.18;;;16.07;68.02
65659;BME280;60181;53.258;6.932;2022-11-03T06:32:52;101119.04;;;16.07;68.08
65659;BME280;60181;53.258;6.932;2022-11-03T06:37:26;101115.73;;;16.07;68.03
65659;BME280;60181;53.258;6.932;2022-11-03T06:41:47;101112.43;;;16.07;68.11
65659;BME280;60181;53.258;6.932;2022-11-03T06:46:22;101109.38;;;16.07;68.28
65659;BME280;60181;53.258;6.932;2022-11-03T06:50:43;101105.10;;;16.06;68.32
65659;BME280;60181;53.258;6.932;2022-11-03T06:59:39;101098.15;;;16.06;68.40
65659;BME280;60181;53.258;6.932;2022-11-03T07:04:20;101094.43;;;16.06;68.23
65659;BME280;60181;53.258;6.932;2022-11-03T07:08:39;101091.36;;;16.07;68.23
65659;BME280;60181;53.258;6.932;2022-11-03T07:13:08;101087.64;;;16.07;68.28
65659;BME280;60181;53.258;6.932;2022-11-03T07:17:31;101085.49;;;16.07;68.29
65659;BME280;60181;53.258;6.932;2022-11-03T07:22:00;101083.67;;;16.07;68.37
65659;BME280;60181;53.258;6.932;2022-11-03T07:26:27;101082.95;;;16.07;68.37
65659;BME280;60181;53.258;6.932;2022-11-03T07:30:57;101079.49;;;16.07;68.58
65659;BME280;60181;53.258;6.932;2022-11-03T07:35:25;101076.01;;;16.07;68.49
65659;BME280;60181;53.258;6.932;2022-11-03T07:39:51;101072.72;;;16.07;68.50
65659;BME280;60181;53.258;6.932;2022-11-03T07:44:19;101069.48;;;16.07;68.82
65659;BME280;60181;53.258;6.932;2022-11-03T07:48:48;101065.52;;;16.07;68.79
65659;BME280;60181;53.258;6.932;2022-11-03T07:53:17;101063.12;;;16.08;68.79
65659;BME280;60181;53.258;6.932;2022-11-03T07:57:43;101057.00;;;16.08;68.84
65659;BME280;60181;53.258;6.932;2022-11-03T08:02:30;101050.89;;;16.08;68.87
65659;BME280;60181;53.258;6.932;2022-11-03T08:06:39;101045.68;;;16.08;68.62
65659;BME280;60181;53.258;6.932;2022-11-03T08:11:07;101041.00;;;16.08;68.87
65659;BME280;60181;53.258;6.932;2022-11-03T08:15:35;101035.69;;;16.09;68.71
65659;BME280;60181;53.258;6.932;2022-11-03T08:20:03;101031.50;;;16.09;68.60
65659;BME280;60181;53.258;6.932;2022-11-03T08:24:31;101026.28;;;16.10;68.53
65659;BME280;60181;53.258;6.932;2022-11-03T08:28:59;101021.00;;;16.11;68.73
65659;BME280;60181;53.258;6.932;2022-11-03T08:33:27;101015.39;;;16.12;68.58
65659;BME280;60181;53.258;6.932;2022-11-03T08:37:55;101010.78;;;16.13;68.58
65659;BME280;60181;53.258;6.932;2022-11-03T08:42:23;101006.33;;;16.14;68.65
65659;BME280;60181;53.258;6.932;2022-11-03T08:46:51;101002.28;;;16.16;68.70
65659;BME280;60181;53.258;6.932;2022-11-03T08:51:19;100997.83;;;16.17;68.97
65659;BME280;60181;53.258;6.932;2022-11-03T08:55:47;100992.88;;;16.18;68.78
65659;BME280;60181;53.258;6.932;2022-11-03T09:00:15;100988.43;;;16.19;68.80
65659;BME280;60181;53.258;6.932;2022-11-03T09:04:43;100984.81;;;16.19;68.83
65659;BME280;60181;53.258;6.932;2022-11-03T09:09:11;100983.23;;;16.20;68.95
65659;BME280;60181;53.258;6.932;2022-11-03T09:13:39;100980.28;;;16.21;69.27
65659;BME280;60181;53.258;6.932;2022-11-03T09:18:07;100977.06;;;16.23;69.41
65659;BME280;60181;53.258;6.932;2022-11-03T09:22:35;100974.84;;;16.25;69.74
65659;BME280;60181;53.258;6.932;2022-11-03T09:27:03;100971.32;;;16.29;70.80
65659;BME280;60181;53.258;6.932;2022-11-03T09:31:31;100965.89;;;16.32;69.80
65659;BME280;60181;53.258;6.932;2022-11-03T09:35:59;100960.21;;;16.34;69.74
65659;BME280;60181;53.258;6.932;2022-11-03T09:40:27;100955.81;;;16.36;69.45
65659;BME280;60181;53.258;6.932;2022-11-03T09:44:55;100950.22;;;16.37;69.41
65659;BME280;60181;53.258;6.932;2022-11-03T09:49:23;100944.84;;;16.39;69.40
65659;BME280;60181;53.258;6.932;2022-11-03T09:53:51;100938.92;;;16.41;69.35
65659;BME280;60181;53.258;6.932;2022-11-03T09:58:19;100933.72;;;16.42;69.38
65659;BME280;60181;53.258;6.932;2022-11-03T10:02:47;100927.86;;;16.43;69.46
65659;BME280;60181;53.258;6.932;2022-11-03T10:07:15;100921.75;;;16.44;69.52
65659;BME280;60181;53.258;6.932;2022-11-03T10:11:43;100914.21;;;16.45;69.49
65659;BME280;60181;53.258;6.932;2022-11-03T10:16:13;100909.09;;;16.46;69.42
65659;BME280;60181;53.258;6.932;2022-11-03T10:20:39;100902.33;;;16.46;69.54
65659;BME280;60181;53.258;6.932;2022-11-03T10:29:35;100889.68;;;16.49;69.34
65659;BME280;60181;53.258;6.932;2022-11-03T10:34:04;100884.25;;;16.51;69.40
65659;BME280;60181;53.258;6.932;2022-11-03T10:38:34;100878.03;;;16.51;69.41
65659;BME280;60181;53.258;6.932;2022-11-03T10:42:59;100872.02;;;16.52;69.44
65659;BME280;60181;53.258;6.932;2022-11-03T10:47:31;100865.91;;;16.52;69.49
65659;BME280;60181;53.258;6.932;2022-11-03T10:51:57;100858.79;;;16.52;69.50
65659;BME280;60181;53.258;6.932;2022-11-03T10:56:23;100850.17;;;16.51;70.08
65659;BME280;60181;53.258;6.932;2022-11-03T11:00:51;100841.17;;;16.51;69.62
65659;BME280;60181;53.258;6.932;2022-11-03T11:05:19;100830.50;;;16.51;69.60
65659;BME280;60181;53.258;6.932;2022-11-03T11:09:47;100821.33;;;16.52;69.52
65659;BME280;60181;53.258;6.932;2022-11-03T11:14:22;100812.16;;;16.53;69.39
65659;BME280;60181;53.258;6.932;2022-11-03T11:27:45;100782.23;;;16.55;69.40
65659;BME280;60181;53.258;6.932;2022-11-03T11:36:35;100765.70;;;16.56;69.40
65659;BME280;60181;53.258;6.932;2022-11-03T11:41:03;100756.52;;;16.57;69.27
65659;BME280;60181;53.258;6.932;2022-11-03T11:54:27;100730.91;;;16.62;69.33
65659;BME280;60181;53.258;6.932;2022-11-03T11:58:55;100723.61;;;16.62;69.32
65659;BME280;60181;53.258;6.932;2022-11-03T12:03:30;100716.09;;;16.62;69.36
65659;BME280;60181;53.258;6.932;2022-11-03T12:07:51;100707.48;;;16.62;69.40
65659;BME280;60181;53.258;6.932;2022-11-03T12:12:31;100698.72;;;16.62;69.41
65659;BME280;60181;53.258;6.932;2022-11-03T12:16:47;100690.30;;;16.62;69.46
65659;BME280;60181;53.258;6.932;2022-11-03T12:25:43;100674.42;;;16.61;69.57
65659;BME280;60181;53.258;6.932;2022-11-03T12:30:12;100667.38;;;16.60;69.58
65659;BME280;60181;53.258;6.932;2022-11-03T12:34:39;100658.88;;;16.59;69.62
65659;BME280;60181;53.258;6.932;2022-11-03T12:39:07;100650.02;;;16.59;69.68
65659;BME280;60181;53.258;6.932;2022-11-03T12:43:35;100639.43;;;16.57;69.74
65659;BME280;60181;53.258;6.932;2022-11-03T12:48:03;100629.10;;;16.57;69.76
65659;BME280;60181;53.258;6.932;2022-11-03T12:52:31;100619.33;;;16.56;69.79
65659;BME280;60181;53.258;6.932;2022-11-03T12:56:59;100610.67;;;16.55;69.81
65659;BME280;60181;53.258;6.932;2022-11-03T13:01:27;100601.47;;;16.54;69.90
65659;BME280;60181;53.258;6.932;2022-11-03T13:05:55;100592.97;;;16.53;69.89
65659;BME280;60181;53.258;6.932;2022-11-03T13:10:23;100584.45;;;16.52;69.95
65659;BME280;60181;53.258;6.932;2022-11-03T13:14:51;100575.43;;;16.51;69.92
65659;BME280;60181;53.258;6.932;2022-11-03T13:19:19;100566.02;;;16.51;69.92
65659;BME280;60181;53.258;6.932;2022-11-03T13:23:47;100555.58;;;16.50;69.93
65659;BME280;60181;53.258;6.932;2022-11-03T13:28:15;100545.34;;;16.50;69.96
65659;BME280;60181;53.258;6.932;2022-11-03T13:32:43;100535.52;;;16.49;69.99
65659;BME280;60181;53.258;6.932;2022-11-03T13:37:11;100526.65;;;16.49;70.03
65659;BME280;60181;53.258;6.932;2022-11-03T13:41:39;100517.64;;;16.49;70.05
65659;BME280;60181;53.258;6.932;2022-11-03T13:46:07;100510.72;;;16.48;70.07
65659;BME280;60181;53.258;6.932;2022-11-03T13:50:35;100504.85;;;16.48;70.12
65659;BME280;60181;53.258;6.932;2022-11-03T13:55:03;100499.05;;;16.48;70.14
65659;BME280;60181;53.258;6.932;2022-11-03T13:59:31;100494.18;;;16.47;70.18
65659;BME280;60181;53.258;6.932;2022-11-03T14:03:59;100489.81;;;16.47;70.21
65659;BME280;60181;53.258;6.932;2022-11-03T14:08:27;100486.89;;;16.48;71.43
65659;BME280;60181;53.258;6.932;2022-11-03T14:12:55;100482.78;;;16.49;71.40
65659;BME280;60181;53.258;6.932;2022-11-03T14:17:23;100476.72;;;16.50;70.75
65659;BME280;60181;53.258;6.932;2022-11-03T14:21:51;100470.20;;;16.51;70.91
65659;BME280;60181;53.258;6.932;2022-11-03T14:26:19;100462.34;;;16.51;70.90
65659;BME280;60181;53.258;6.932;2022-11-03T14:30:47;100452.58;;;16.50;70.84
65659;BME280;60181;53.258;6.932;2022-11-03T14:35:15;100443.99;;;16.50;70.90
65659;BME280;60181;53.258;6.932;2022-11-03T14:39:43;100435.24;;;16.49;70.93
65659;BME280;60181;53.258;6.932;2022-11-03T14:44:11;100427.03;;;16.48;70.94
65659;BME280;60181;53.258;6.932;2022-11-03T14:48:39;100418.77;;;16.47;70.94
65659;BME280;60181;53.258;6.932;2022-11-03T14:53:07;100410.94;;;16.46;70.89
65659;BME280;60181;53.258;6.932;2022-11-03T14:57:35;100401.92;;;16.45;70.87
65659;BME280;60181;53.258;6.932;2022-11-03T15:02:03;100392.33;;;16.44;70.91
65659;BME280;60181;53.258;6.932;2022-11-03T15:06:30;100383.75;;;16.45;71.77
65659;BME280;60181;53.258;6.932;2022-11-03T15:10:58;100377.12;;;16.51;72.42
65659;BME280;60181;53.258;6.932;2022-11-03T15:15:26;100370.89;;;16.55;72.50
65659;BME280;60181;53.258;6.932;2022-11-03T15:19:54;100363.70;;;16.57;72.32
65659;BME280;60181;53.258;6.932;2022-11-03T15:24:22;100357.25;;;16.57;71.84
65659;BME280;60181;53.258;6.932;2022-11-03T15:28:50;100349.89;;;16.56;71.88
65659;BME280;60181;53.258;6.932;2022-11-03T15:33:18;100341.22;;;16.55;72.05
65659;BME280;60181;53.258;6.932;2022-11-03T15:37:46;100331.89;;;16.54;71.99
65659;BME280;60181;53.258;6.932;2022-11-03T15:42:15;100322.46;;;16.53;71.97
65659;BME280;60181;53.258;6.932;2022-11-03T15:46:42;100312.03;;;16.51;71.83
65659;BME280;60181;53.258;6.932;2022-11-03T15:51:11;100303.38;;;16.51;71.83
65659;BME280;60181;53.258;6.932;2022-11-03T15:55:38;100296.94;;;16.49;71.80
65659;BME280;60181;53.258;6.932;2022-11-03T16:00:07;100294.03;;;16.49;72.39
65659;BME280;60181;53.258;6.932;2022-11-03T16:04:34;100290.80;;;16.48;71.89
65659;BME280;60181;53.258;6.932;2022-11-03T16:09:02;100284.54;;;16.47;71.73
65659;BME280;60181;53.258;6.932;2022-11-03T16:13:30;100278.91;;;16.47;71.71
65659;BME280;60181;53.258;6.932;2022-11-03T16:17:58;100274.86;;;16.47;71.71
65659;BME280;60181;53.258;6.932;2022-11-03T16:22:26;100271.48;;;16.46;71.65
65659;BME280;60181;53.258;6.932;2022-11-03T16:26:54;100266.77;;;16.46;71.66
65659;BME280;60181;53.258;6.932;2022-11-03T16:31:22;100262.20;;;16.46;71.68
65659;BME280;60181;53.258;6.932;2022-11-03T16:35:50;100257.25;;;16.46;71.67
65659;BME280;60181;53.258;6.932;2022-11-03T16:40:18;100253.13;;;16.48;72.44
65659;BME280;60181;53.258;6.932;2022-11-03T16:44:46;100248.47;;;16.53;72.40
65659;BME280;60181;53.258;6.932;2022-11-03T16:49:14;100243.73;;;16.55;72.19
65659;BME280;60181;53.258;6.932;2022-11-03T16:53:42;100239.59;;;16.56;72.18
65659;BME280;60181;53.258;6.932;2022-11-03T16:58:10;100234.88;;;16.57;71.84
65659;BME280;60181;53.258;6.932;2022-11-03T17:02:38;100229.92;;;16.57;71.86
65659;BME280;60181;53.258;6.932;2022-11-03T17:07:06;100223.89;;;16.56;71.69
65659;BME280;60181;53.258;6.932;2022-11-03T17:11:34;100217.36;;;16.56;71.61
65659;BME280;60181;53.258;6.932;2022-11-03T17:16:04;100210.91;;;16.56;71.55
65659;BME280;60181;53.258;6.932;2022-11-03T17:20:30;100203.39;;;16.55;71.53
65659;BME280;60181;53.258;6.932;2022-11-03T17:24:58;100197.53;;;16.55;71.51
65659;BME280;60181;53.258;6.932;2022-11-03T17:29:32;100192.72;;;16.55;71.49
65659;BME280;60181;53.258;6.932;2022-11-03T17:33:54;100187.21;;;16.54;71.47
65659;BME280;60181;53.258;6.932;2022-11-03T17:38:22;100182.07;;;16.53;71.45
65659;BME280;60181;53.258;6.932;2022-11-03T17:42:50;100179.11;;;16.53;71.46
65659;BME280;60181;53.258;6.932;2022-11-03T17:47:18;100177.53;;;16.53;71.76
65659;BME280;60181;53.258;6.932;2022-11-03T17:51:46;100175.22;;;16.53;71.48
65659;BME280;60181;53.258;6.932;2022-11-03T17:56:15;100173.66;;;16.53;71.47
65659;BME280;60181;53.258;6.932;2022-11-03T18:00:43;100173.07;;;16.53;71.47
65659;BME280;60181;53.258;6.932;2022-11-03T18:09:38;100174.66;;;16.52;71.49
65659;BME280;60181;53.258;6.932;2022-11-03T18:14:06;100174.41;;;16.52;71.47
65659;BME280;60181;53.258;6.932;2022-11-03T18:18:41;100173.81;;;16.51;71.48
65659;BME280;60181;53.258;6.932;2022-11-03T18:23:13;100172.66;;;16.51;71.88
65659;BME280;60181;53.258;6.932;2022-11-03T18:27:30;100169.29;;;16.52;71.61
65659;BME280;60181;53.258;6.932;2022-11-03T18:31:58;100166.48;;;16.52;71.52
65659;BME280;60181;53.258;6.932;2022-11-03T18:36:26;100162.73;;;16.51;71.53
65659;BME280;60181;53.258;6.932;2022-11-03T18:40:54;100159.02;;;16.51;71.57
65659;BME280;60181;53.258;6.932;2022-11-03T18:45:22;100154.82;;;16.51;71.56
65659;BME280;60181;53.258;6.932;2022-11-03T18:49:50;100150.01;;;16.50;71.57
65659;BME280;60181;53.258;6.932;2022-11-03T18:54:19;100144.48;;;16.50;71.58
65659;BME280;60181;53.258;6.932;2022-11-03T18:58:47;100138.78;;;16.50;71.57
65659;BME280;60181;53.258;6.932;2022-11-03T19:03:15;100132.26;;;16.49;71.57
65659;BME280;60181;53.258;6.932;2022-11-03T19:07:43;100126.06;;;16.50;71.98
65659;BME280;60181;53.258;6.932;2022-11-03T19:12:11;100120.31;;;16.53;72.50
65659;BME280;60181;53.258;6.932;2022-11-03T19:16:38;100113.72;;;16.53;71.97
65659;BME280;60181;53.258;6.932;2022-11-03T19:21:16;100107.01;;;16.53;72.14
65659;BME280;60181;53.258;6.932;2022-11-03T19:25:35;100098.86;;;16.61;71.89
65659;BME280;60181;53.258;6.932;2022-11-03T19:30:03;100092.86;;;16.65;72.11
65659;BME280;60181;53.258;6.932;2022-11-03T19:34:31;100085.60;;;16.65;71.95
65659;BME280;60181;53.258;6.932;2022-11-03T19:38:58;100079.39;;;16.64;72.06
65659;BME280;60181;53.258;6.932;2022-11-03T19:43:26;100071.72;;;16.63;72.12
65659;BME280;60181;53.258;6.932;2022-11-03T19:47:55;100062.65;;;16.62;72.09
65659;BME280;60181;53.258;6.932;2022-11-03T19:52:24;100055.05;;;16.61;72.05
65659;BME280;60181;53.258;6.932;2022-11-03T19:56:50;100046.22;;;16.59;72.03
65659;BME280;60181;53.258;6.932;2022-11-03T20:01:18;100037.30;;;16.58;72.01
65659;BME280;60181;53.258;6.932;2022-11-03T20:05:46;100028.44;;;16.57;71.97
65659;BME280;60181;53.258;6.932;2022-11-03T20:10:15;100021.66;;;16.56;71.94
65659;BME280;60181;53.258;6.932;2022-11-03T20:14:42;100016.82;;;16.55;71.90
65659;BME280;60181;53.258;6.932;2022-11-03T20:19:10;100012.59;;;16.54;71.88
65659;BME280;60181;53.258;6.932;2022-11-03T20:23:38;100009.37;;;16.54;71.88
65659;BME280;60181;53.258;6.932;2022-11-03T20:28:16;100006.41;;;16.53;71.87
65659;BME280;60181;53.258;6.932;2022-11-03T20:32:34;100004.41;;;16.53;71.84
65659;BME280;60181;53.258;6.932;2022-11-03T20:37:04;100002.85;;;16.52;71.83
65659;BME280;60181;53.258;6.932;2022-11-03T20:41:30;100001.22;;;16.52;71.83
65659;BME280;60181;53.258;6.932;2022-11-03T20:45:58;99999.66;;;16.52;71.83
65659;BME280;60181;53.258;6.932;2022-11-03T20:50:28;99997.85;;;16.52;71.83
65659;BME280;60181;53.258;6.932;2022-11-03T20:54:54;99994.76;;;16.51;71.82
65659;BME280;60181;53.258;6.932;2022-11-03T20:59:22;99991.55;;;16.51;71.83
65659;BME280;60181;53.258;6.932;2022-11-03T21:03:50;99988.73;;;16.51;71.85
65659;BME280;60181;53.258;6.932;2022-11-03T21:08:18;99986.33;;;16.51;71.84
65659;BME280;60181;53.258;6.932;2022-11-03T21:12:46;99983.11;;;16.51;71.86
65659;BME280;60181;53.258;6.932;2022-11-03T21:17:14;99980.24;;;16.51;71.84
65659;BME280;60181;53.258;6.932;2022-11-03T21:21:42;99977.59;;;16.51;71.86
65659;BME280;60181;53.258;6.932;2022-11-03T21:26:10;99974.70;;;16.51;71.87
65659;BME280;60181;53.258;6.932;2022-11-03T21:30:38;99973.05;;;16.51;71.86
65659;BME280;60181;53.258;6.932;2022-11-03T21:35:08;99969.06;;;16.52;72.52
65659;BME280;60181;53.258;6.932;2022-11-03T21:39:34;99964.24;;;16.54;72.31
65659;BME280;60181;53.258;6.932;2022-11-03T21:44:02;99958.94;;;16.55;72.27
65659;BME280;60181;53.258;6.932;2022-11-03T21:48:30;99953.91;;;16.54;72.40
65659;BME280;60181;53.258;6.932;2022-11-03T21:52:58;99950.51;;;16.55;72.78
65659;BME280;60181;53.258;6.932;2022-11-03T21:57:26;99950.53;;;16.60;72.54
65659;BME280;60181;53.258;6.932;2022-11-03T22:01:54;99952.25;;;16.64;71.50
65659;BME280;60181;53.258;6.932;2022-11-03T22:06:22;99952.81;;;16.64;71.11
65659;BME280;60181;53.258;6.932;2022-11-03T22:10:50;99952.84;;;16.63;70.99
65659;BME280;60181;53.258;6.932;2022-11-03T22:15:18;99950.11;;;16.61;70.84
65659;BME280;60181;53.258;6.932;2022-11-03T22:19:46;99946.51;;;16.59;70.68
65659;BME280;60181;53.258;6.932;2022-11-03T22:24:14;99943.30;;;16.57;70.56
65659;BME280;60181;53.258;6.932;2022-11-03T22:28:42;99939.34;;;16.55;70.63
65659;BME280;60181;53.258;6.932;2022-11-03T22:33:10;99936.05;;;16.53;70.66
65659;BME280;60181;53.258;6.932;2022-11-03T22:37:38;99934.52;;;16.52;70.57
65659;BME280;60181;53.258;6.932;2022-11-03T22:42:07;99935.35;;;16.50;70.40
65659;BME280;60181;53.258;6.932;2022-11-03T22:46:34;99937.43;;;16.49;70.33
65659;BME280;60181;53.258;6.932;2022-11-03T22:51:03;99939.75;;;16.48;70.35
65659;BME280;60181;53.258;6.932;2022-11-03T22:55:30;99939.69;;;16.46;70.86
65659;BME280;60181;53.258;6.932;2022-11-03T22:59:58;99937.91;;;16.44;71.33
65659;BME280;60181;53.258;6.932;2022-11-03T23:04:26;99935.85;;;16.42;71.12
65659;BME280;60181;53.258;6.932;2022-11-03T23:08:54;99928.92;;;16.41;70.33
65659;BME280;60181;53.258;6.932;2022-11-03T23:13:22;99915.59;;;16.41;70.16
65659;BME280;60181;53.258;6.932;2022-11-03T23:17:50;99904.61;;;16.41;70.33
65659;BME280;60181;53.258;6.932;2022-11-03T23:22:18;99896.42;;;16.40;70.27
65659;BME280;60181;53.258;6.932;2022-11-03T23:26:46;99891.06;;;16.40;70.26
65659;BME280;60181;53.258;6.932;2022-11-03T23:31:14;99886.63;;;16.39;70.57
65659;BME280;60181;53.258;6.932;2022-11-03T23:35:42;99879.42;;;16.39;70.34
65659;BME280;60181;53.258;6.932;2022-11-03T23:40:10;99874.22;;;16.38;70.29
65659;BME280;60181;53.258;6.932;2022-11-03T23:44:38;99872.68;;;16.37;70.25
65659;BME280;60181;53.258;6.932;2022-11-03T23:49:06;99871.75;;;16.37;70.18
65659;BME280;60181;53.258;6.932;2022-11-03T23:53:34;99869.95;;;16.36;70.18
65659;BME280;60181;53.258;6.932;2022-11-03T23:58:02;99865.64;;;16.36;70.21
